sensor_id;sensor_type;location;lat;lon;timestamp;temperature;humidity
19966;DHT22;10144;50.874;4.762;2024-03-02T00:00:26;7.00;99.90
19966;DHT22;10144;50.874;4.762;2024-03-02T00:02:55;6.90;99.90
19966;DHT22;10144;50.874;4.762;2024-03-02T00:05:24;6.90;99.90
19966;DHT22;10144;50.874;4.762;2024-03-02T00:07:59;6.80;99.90
19966;DHT22;10144;50.874;4.762;2024-03-02T00:10:38;6.90;99.90
19966;DHT22;10144;50.874;4.762;2024-03-02T00:13:22;6.90;99.90
19966;DHT22;10144;50.874;4.762;2024-03-02T00:15:53;6.80;99.90
19966;DHT22;10144;50.874;4.762;2024-03-02T00:18:38;6.80;99.90
19966;DHT22;10144;50.874;4.762;2024-03-02T00:21:27;6.70;99.90
19966;DHT22;10144;50.874;4.762;2024-03-02T00:23:55;6.80;99.90
19966;DHT22;10144;50.874;4.762;2024-03-02T00:26:49;6.80;99.90
19966;DHT22;10144;50.874;4.762;2024-03-02T00:29:18;6.80;99.90
19966;DHT22;10144;50.874;4.762;2024-03-02T00:31:45;6.80;99.90
19966;DHT22;10144;50.874;4.762;2024-03-02T00:34:14;6.80;99.90
19966;DHT22;10144;50.874;4.762;2024-03-02T00:37:00;6.80;99.90
19966;DHT22;10144;50.874;4.762;2024-03-02T00:39:29;6.80;99.90
19966;DHT22;10144;50.874;4.762;2024-03-02T00:42:01;6.80;99.90
19966;DHT22;10144;50.874;4.762;2024-03-02T00:44:27;6.90;99.90
19966;DHT22;10144;50.874;4.762;2024-03-02T00:47:07;6.80;99.90
19966;DHT22;10144;50.874;4.762;2024-03-02T00:49:36;6.70;99.90
19966;DHT22;10144;50.874;4.762;2024-03-02T00:52:04;6.80;99.90
19966;DHT22;10144;50.874;4.762;2024-03-02T00:54:30;6.70;99.90
19966;DHT22;10144;50.874;4.762;2024-03-02T00:56:59;6.80;99.90
19966;DHT22;10144;50.874;4.762;2024-03-02T00:59:25;6.80;99.90
19966;DHT22;10144;50.874;4.762;2024-03-02T01:02:01;6.90;99.90
19966;DHT22;10144;50.874;4.762;2024-03-02T01:04:30;6.90;99.90
19966;DHT22;10144;50.874;4.762;2024-03-02T01:07:00;6.80;99.90
19966;DHT22;10144;50.874;4.762;2024-03-02T01:09:25;6.70;99.90
19966;DHT22;10144;50.874;4.762;2024-03-02T01:12:00;6.80;99.90
19966;DHT22;10144;50.874;4.762;2024-03-02T01:14:27;6.80;99.90
19966;DHT22;10144;50.874;4.762;2024-03-02T01:16:56;6.80;99.90
19966;DHT22;10144;50.874;4.762;2024-03-02T01:19:23;6.70;99.90
19966;DHT22;10144;50.874;4.762;2024-03-02T01:21:55;6.70;99.90
19966;DHT22;10144;50.874;4.762;2024-03-02T01:24:24;6.70;99.90
19966;DHT22;10144;50.874;4.762;2024-03-02T01:26:52;6.60;99.90
19966;DHT22;10144;50.874;4.762;2024-03-02T01:29:18;6.70;99.90
19966;DHT22;10144;50.874;4.762;2024-03-02T01:31:48;6.70;99.90
19966;DHT22;10144;50.874;4.762;2024-03-02T01:34:17;6.70;99.90
19966;DHT22;10144;50.874;4.762;2024-03-02T01:36:45;6.60;99.90
19966;DHT22;10144;50.874;4.762;2024-03-02T01:39:44;6.60;99.90
19966;DHT22;10144;50.874;4.762;2024-03-02T01:42:13;6.50;99.90
19966;DHT22;10144;50.874;4.762;2024-03-02T01:44:40;6.50;99.90
19966;DHT22;10144;50.874;4.762;2024-03-02T01:47:09;6.60;99.90
19966;DHT22;10144;50.874;4.762;2024-03-02T01:49:38;6.60;99.90
19966;DHT22;10144;50.874;4.762;2024-03-02T01:52:07;6.70;99.90
19966;DHT22;10144;50.874;4.762;2024-03-02T01:54:39;6.60;99.90
19966;DHT22;10144;50.874;4.762;2024-03-02T01:57:04;6.60;99.90
19966;DHT22;10144;50.874;4.762;2024-03-02T01:59:33;6.60;99.90
19966;DHT22;10144;50.874;4.762;2024-03-02T02:02:10;6.60;99.90
19966;DHT22;10144;50.874;4.762;2024-03-02T02:04:39;6.60;99.90
19966;DHT22;10144;50.874;4.762;2024-03-02T02:07:07;6.40;99.90
19966;DHT22;10144;50.874;4.762;2024-03-02T02:09:33;6.50;99.90
19966;DHT22;10144;50.874;4.762;2024-03-02T02:12:02;6.60;99.90
19966;DHT22;10144;50.874;4.762;2024-03-02T02:14:30;6.60;99.90
19966;DHT22;10144;50.874;4.762;2024-03-02T02:16:59;6.60;99.90
19966;DHT22;10144;50.874;4.762;2024-03-02T02:19:26;6.50;99.90
19966;DHT22;10144;50.874;4.762;2024-03-02T02:21:55;6.50;99.90
19966;DHT22;10144;50.874;4.762;2024-03-02T02:24:24;6.40;99.90
19966;DHT22;10144;50.874;4.762;2024-03-02T02:26:52;6.50;99.90
19966;DHT22;10144;50.874;4.762;2024-03-02T02:29:21;6.60;99.90
19966;DHT22;10144;50.874;4.762;2024-03-02T02:31:47;6.60;99.90
19966;DHT22;10144;50.874;4.762;2024-03-02T02:34:16;6.60;99.90
19966;DHT22;10144;50.874;4.762;2024-03-02T02:36:45;6.60;99.90
19966;DHT22;10144;50.874;4.762;2024-03-02T02:39:13;6.60;99.90
19966;DHT22;10144;50.874;4.762;2024-03-02T02:41:48;6.50;99.90
19966;DHT22;10144;50.874;4.762;2024-03-02T02:44:17;6.50;99.90
19966;DHT22;10144;50.874;4.762;2024-03-02T02:46:46;6.40;99.90
19966;DHT22;10144;50.874;4.762;2024-03-02T02:49:15;6.30;99.90
19966;DHT22;10144;50.874;4.762;2024-03-02T02:51:45;6.30;99.90
19966;DHT22;10144;50.874;4.762;2024-03-02T02:54:11;6.30;99.90
19966;DHT22;10144;50.874;4.762;2024-03-02T02:57:03;6.40;99.90
19966;DHT22;10144;50.874;4.762;2024-03-02T02:59:32;6.50;99.90
19966;DHT22;10144;50.874;4.762;2024-03-02T03:02:01;6.60;99.90
19966;DHT22;10144;50.874;4.762;2024-03-02T03:04:27;6.30;99.90
19966;DHT22;10144;50.874;4.762;2024-03-02T03:06:55;6.20;99.90
19966;DHT22;10144;50.874;4.762;2024-03-02T03:09:24;6.10;99.90
19966;DHT22;10144;50.874;4.762;2024-03-02T03:11:53;6.00;99.90
19966;DHT22;10144;50.874;4.762;2024-03-02T03:14:19;6.00;99.90
19966;DHT22;10144;50.874;4.762;2024-03-02T03:16:46;6.00;99.90
19966;DHT22;10144;50.874;4.762;2024-03-02T03:19:17;6.00;99.90
19966;DHT22;10144;50.874;4.762;2024-03-02T03:21:44;5.90;99.90
19966;DHT22;10144;50.874;4.762;2024-03-02T03:24:16;5.90;99.90
19966;DHT22;10144;50.874;4.762;2024-03-02T03:26:46;5.70;99.90
19966;DHT22;10144;50.874;4.762;2024-03-02T03:29:14;5.60;99.90
19966;DHT22;10144;50.874;4.762;2024-03-02T03:31:40;5.60;99.90
19966;DHT22;10144;50.874;4.762;2024-03-02T03:34:06;5.60;99.90
19966;DHT22;10144;50.874;4.762;2024-03-02T03:36:34;5.80;99.90
19966;DHT22;10144;50.874;4.762;2024-03-02T03:39:06;5.80;99.90
19966;DHT22;10144;50.874;4.762;2024-03-02T03:41:35;5.90;99.90
19966;DHT22;10144;50.874;4.762;2024-03-02T03:44:04;5.90;99.90
19966;DHT22;10144;50.874;4.762;2024-03-02T03:46:32;5.90;99.90
19966;DHT22;10144;50.874;4.762;2024-03-02T03:49:01;5.80;99.90
19966;DHT22;10144;50.874;4.762;2024-03-02T03:51:27;5.80;99.90
19966;DHT22;10144;50.874;4.762;2024-03-02T03:53:53;5.60;99.90
19966;DHT22;10144;50.874;4.762;2024-03-02T03:56:22;5.70;99.90
19966;DHT22;10144;50.874;4.762;2024-03-02T03:59:10;5.60;99.90
19966;DHT22;10144;50.874;4.762;2024-03-02T04:01:39;5.60;99.90
19966;DHT22;10144;50.874;4.762;2024-03-02T04:04:04;5.60;99.90
19966;DHT22;10144;50.874;4.762;2024-03-02T04:06:33;5.60;99.90
19966;DHT22;10144;50.874;4.762;2024-03-02T04:09:02;5.40;99.90
19966;DHT22;10144;50.874;4.762;2024-03-02T04:11:32;5.40;99.90
19966;DHT22;10144;50.874;4.762;2024-03-02T04:14:01;5.30;99.90
19966;DHT22;10144;50.874;4.762;2024-03-02T04:16:27;5.40;99.90
19966;DHT22;10144;50.874;4.762;2024-03-02T04:18:57;5.40;99.90
19966;DHT22;10144;50.874;4.762;2024-03-02T04:21:41;5.30;99.90
19966;DHT22;10144;50.874;4.762;2024-03-02T04:24:10;5.30;99.90
19966;DHT22;10144;50.874;4.762;2024-03-02T04:26:39;5.20;99.90
19966;DHT22;10144;50.874;4.762;2024-03-02T04:29:13;5.30;99.90
19966;DHT22;10144;50.874;4.762;2024-03-02T04:32:00;5.30;99.90
19966;DHT22;10144;50.874;4.762;2024-03-02T04:34:26;5.30;99.90
19966;DHT22;10144;50.874;4.762;2024-03-02T04:36:52;5.20;99.90
19966;DHT22;10144;50.874;4.762;2024-03-02T04:39:19;5.30;99.90
19966;DHT22;10144;50.874;4.762;2024-03-02T04:42:06;5.10;99.90
19966;DHT22;10144;50.874;4.762;2024-03-02T04:44:35;5.10;99.90
19966;DHT22;10144;50.874;4.762;2024-03-02T04:47:01;5.10;99.90
19966;DHT22;10144;50.874;4.762;2024-03-02T04:49:26;5.10;99.90
19966;DHT22;10144;50.874;4.762;2024-03-02T04:51:55;5.20;99.90
19966;DHT22;10144;50.874;4.762;2024-03-02T04:54:24;5.20;99.90
19966;DHT22;10144;50.874;4.762;2024-03-02T04:56:52;5.20;99.90
19966;DHT22;10144;50.874;4.762;2024-03-02T04:59:18;5.10;99.90
19966;DHT22;10144;50.874;4.762;2024-03-02T05:01:44;5.20;99.90
19966;DHT22;10144;50.874;4.762;2024-03-02T05:04:46;5.20;99.90
19966;DHT22;10144;50.874;4.762;2024-03-02T05:07:27;5.20;99.90
19966;DHT22;10144;50.874;4.762;2024-03-02T05:09:55;5.10;99.90
19966;DHT22;10144;50.874;4.762;2024-03-02T05:12:23;5.20;99.90
19966;DHT22;10144;50.874;4.762;2024-03-02T05:15:31;5.20;99.90
19966;DHT22;10144;50.874;4.762;2024-03-02T05:18:03;5.20;99.90
19966;DHT22;10144;50.874;4.762;2024-03-02T05:20:32;5.20;99.90
19966;DHT22;10144;50.874;4.762;2024-03-02T05:22:58;5.30;99.90
19966;DHT22;10144;50.874;4.762;2024-03-02T05:25:27;5.30;99.90
19966;DHT22;10144;50.874;4.762;2024-03-02T05:27:56;5.40;99.90
19966;DHT22;10144;50.874;4.762;2024-03-02T05:30:24;5.50;99.90
19966;DHT22;10144;50.874;4.762;2024-03-02T05:32:51;5.40;99.90
19966;DHT22;10144;50.874;4.762;2024-03-02T05:35:20;5.40;99.90
19966;DHT22;10144;50.874;4.762;2024-03-02T05:37:52;5.50;99.90
19966;DHT22;10144;50.874;4.762;2024-03-02T05:40:27;5.60;99.90
19966;DHT22;10144;50.874;4.762;2024-03-02T05:42:56;5.70;99.90
19966;DHT22;10144;50.874;4.762;2024-03-02T05:45:21;5.60;99.90
19966;DHT22;10144;50.874;4.762;2024-03-02T05:47:47;5.60;99.90
19966;DHT22;10144;50.874;4.762;2024-03-02T05:50:16;5.60;99.90
19966;DHT22;10144;50.874;4.762;2024-03-02T05:52:51;5.60;99.90
19966;DHT22;10144;50.874;4.762;2024-03-02T05:55:19;5.70;99.90
19966;DHT22;10144;50.874;4.762;2024-03-02T05:57:46;5.70;99.90
19966;DHT22;10144;50.874;4.762;2024-03-02T06:00:31;5.60;99.90
19966;DHT22;10144;50.874;4.762;2024-03-02T06:02:59;5.70;99.90
19966;DHT22;10144;50.874;4.762;2024-03-02T06:05:28;5.80;99.90
19966;DHT22;10144;50.874;4.762;2024-03-02T06:07:57;5.70;99.90
19966;DHT22;10144;50.874;4.762;2024-03-02T06:10:23;5.70;99.90
19966;DHT22;10144;50.874;4.762;2024-03-02T06:12:50;5.50;99.90
19966;DHT22;10144;50.874;4.762;2024-03-02T06:15:16;5.70;99.90
19966;DHT22;10144;50.874;4.762;2024-03-02T06:17:45;5.70;99.90
19966;DHT22;10144;50.874;4.762;2024-03-02T06:20:14;5.50;99.90
19966;DHT22;10144;50.874;4.762;2024-03-02T06:22:41;5.50;99.90
19966;DHT22;10144;50.874;4.762;2024-03-02T06:25:07;5.60;99.90
19966;DHT22;10144;50.874;4.762;2024-03-02T06:27:34;5.50;99.90
19966;DHT22;10144;50.874;4.762;2024-03-02T06:30:00;5.40;99.90
19966;DHT22;10144;50.874;4.762;2024-03-02T06:32:27;5.40;99.90
19966;DHT22;10144;50.874;4.762;2024-03-02T06:34:56;5.50;99.90
19966;DHT22;10144;50.874;4.762;2024-03-02T06:37:24;5.50;99.90
19966;DHT22;10144;50.874;4.762;2024-03-02T06:39:52;5.40;99.90
19966;DHT22;10144;50.874;4.762;2024-03-02T06:42:21;5.50;99.90
19966;DHT22;10144;50.874;4.762;2024-03-02T06:44:47;5.80;99.90
19966;DHT22;10144;50.874;4.762;2024-03-02T06:47:14;6.20;99.90
19966;DHT22;10144;50.874;4.762;2024-03-02T06:49:45;6.60;99.90
19966;DHT22;10144;50.874;4.762;2024-03-02T06:52:14;6.60;99.90
19966;DHT22;10144;50.874;4.762;2024-03-02T06:54:42;6.50;99.90
19966;DHT22;10144;50.874;4.762;2024-03-02T06:57:08;6.40;99.90
19966;DHT22;10144;50.874;4.762;2024-03-02T06:59:34;6.20;99.90
19966;DHT22;10144;50.874;4.762;2024-03-02T07:02:05;5.90;99.90
19966;DHT22;10144;50.874;4.762;2024-03-02T07:04:32;5.80;99.90
19966;DHT22;10144;50.874;4.762;2024-03-02T07:06:58;5.70;99.90
19966;DHT22;10144;50.874;4.762;2024-03-02T07:09:25;5.70;99.90
19966;DHT22;10144;50.874;4.762;2024-03-02T07:11:54;5.70;99.90
19966;DHT22;10144;50.874;4.762;2024-03-02T07:14:23;5.70;99.90
19966;DHT22;10144;50.874;4.762;2024-03-02T07:17:11;6.20;99.90
19966;DHT22;10144;50.874;4.762;2024-03-02T07:19:41;7.40;99.90
19966;DHT22;10144;50.874;4.762;2024-03-02T07:22:08;8.60;99.90
19966;DHT22;10144;50.874;4.762;2024-03-02T07:24:43;9.50;99.90
19966;DHT22;10144;50.874;4.762;2024-03-02T07:27:09;10.40;99.90
19966;DHT22;10144;50.874;4.762;2024-03-02T07:29:36;11.00;99.90
19966;DHT22;10144;50.874;4.762;2024-03-02T07:32:05;11.40;99.90
19966;DHT22;10144;50.874;4.762;2024-03-02T07:34:35;11.50;99.90
19966;DHT22;10144;50.874;4.762;2024-03-02T07:37:01;11.50;99.90
19966;DHT22;10144;50.874;4.762;2024-03-02T07:39:26;11.00;99.90
19966;DHT22;10144;50.874;4.762;2024-03-02T07:41:56;10.70;99.90
19966;DHT22;10144;50.874;4.762;2024-03-02T07:44:23;10.90;99.90
19966;DHT22;10144;50.874;4.762;2024-03-02T07:46:49;11.50;99.90
19966;DHT22;10144;50.874;4.762;2024-03-02T07:49:23;11.60;99.90
19966;DHT22;10144;50.874;4.762;2024-03-02T07:51:52;11.50;99.90
19966;DHT22;10144;50.874;4.762;2024-03-02T07:54:21;11.40;99.90
19966;DHT22;10144;50.874;4.762;2024-03-02T07:56:47;11.90;99.90
19966;DHT22;10144;50.874;4.762;2024-03-02T07:59:16;12.40;99.90
19966;DHT22;10144;50.874;4.762;2024-03-02T08:01:42;12.30;99.90
19966;DHT22;10144;50.874;4.762;2024-03-02T08:04:11;12.30;99.90
19966;DHT22;10144;50.874;4.762;2024-03-02T08:06:40;13.10;99.90
19966;DHT22;10144;50.874;4.762;2024-03-02T08:09:08;14.00;1.00
19966;DHT22;10144;50.874;4.762;2024-03-02T08:11:38;14.70;1.00
19966;DHT22;10144;50.874;4.762;2024-03-02T08:14:06;15.40;1.00
19966;DHT22;10144;50.874;4.762;2024-03-02T08:16:35;15.60;99.90
19966;DHT22;10144;50.874;4.762;2024-03-02T08:19:03;15.80;99.90
19966;DHT22;10144;50.874;4.762;2024-03-02T08:21:30;16.50;95.60
19966;DHT22;10144;50.874;4.762;2024-03-02T08:23:58;16.90;1.00
19966;DHT22;10144;50.874;4.762;2024-03-02T08:26:27;17.30;1.00
19966;DHT22;10144;50.874;4.762;2024-03-02T08:28:59;18.10;1.00
19966;DHT22;10144;50.874;4.762;2024-03-02T08:31:24;18.30;99.90
19966;DHT22;10144;50.874;4.762;2024-03-02T08:33:53;18.80;1.00
19966;DHT22;10144;50.874;4.762;2024-03-02T08:36:22;18.90;1.00
19966;DHT22;10144;50.874;4.762;2024-03-02T08:38:51;18.30;1.00
19966;DHT22;10144;50.874;4.762;2024-03-02T08:41:20;18.30;1.00
19966;DHT22;10144;50.874;4.762;2024-03-02T08:43:49;17.50;99.90
19966;DHT22;10144;50.874;4.762;2024-03-02T08:46:18;17.30;1.00
19966;DHT22;10144;50.874;4.762;2024-03-02T08:48:44;17.30;99.90
19966;DHT22;10144;50.874;4.762;2024-03-02T08:51:12;17.60;99.90
19966;DHT22;10144;50.874;4.762;2024-03-02T08:53:38;18.00;1.00
19966;DHT22;10144;50.874;4.762;2024-03-02T08:56:07;18.40;1.00
19966;DHT22;10144;50.874;4.762;2024-03-02T08:58:36;18.40;1.00
19966;DHT22;10144;50.874;4.762;2024-03-02T09:01:04;18.10;1.00
19966;DHT22;10144;50.874;4.762;2024-03-02T09:03:38;17.80;1.00
19966;DHT22;10144;50.874;4.762;2024-03-02T09:06:10;17.50;78.00
19966;DHT22;10144;50.874;4.762;2024-03-02T09:08:38;17.80;93.90
19966;DHT22;10144;50.874;4.762;2024-03-02T09:11:07;17.50;99.90
19966;DHT22;10144;50.874;4.762;2024-03-02T09:13:34;17.20;99.90
19966;DHT22;10144;50.874;4.762;2024-03-02T09:16:00;16.90;1.00
19966;DHT22;10144;50.874;4.762;2024-03-02T09:18:29;16.80;1.00
19966;DHT22;10144;50.874;4.762;2024-03-02T09:21:01;17.00;1.00
19966;DHT22;10144;50.874;4.762;2024-03-02T09:23:26;17.20;99.90
19966;DHT22;10144;50.874;4.762;2024-03-02T09:25:55;16.90;99.90
19966;DHT22;10144;50.874;4.762;2024-03-02T09:28:24;15.60;99.90
19966;DHT22;10144;50.874;4.762;2024-03-02T09:30:55;13.60;1.00
19966;DHT22;10144;50.874;4.762;2024-03-02T09:33:24;12.80;1.00
19966;DHT22;10144;50.874;4.762;2024-03-02T09:35:53;12.70;1.00
19966;DHT22;10144;50.874;4.762;2024-03-02T09:38:19;12.70;1.00
19966;DHT22;10144;50.874;4.762;2024-03-02T09:40:46;12.00;18.50
19966;DHT22;10144;50.874;4.762;2024-03-02T09:43:13;11.70;57.00
19966;DHT22;10144;50.874;4.762;2024-03-02T09:45:40;11.50;33.20
19966;DHT22;10144;50.874;4.762;2024-03-02T09:48:06;11.30;58.10
19966;DHT22;10144;50.874;4.762;2024-03-02T09:50:34;11.20;76.80
19966;DHT22;10144;50.874;4.762;2024-03-02T09:53:00;11.20;85.00
19966;DHT22;10144;50.874;4.762;2024-03-02T09:55:26;11.60;68.30
19966;DHT22;10144;50.874;4.762;2024-03-02T09:57:54;12.40;1.00
19966;DHT22;10144;50.874;4.762;2024-03-02T10:00:24;12.00;12.20
19966;DHT22;10144;50.874;4.762;2024-03-02T10:02:56;11.70;21.90
19966;DHT22;10144;50.874;4.762;2024-03-02T10:05:40;11.90;1.00
19966;DHT22;10144;50.874;4.762;2024-03-02T10:08:07;12.70;1.00
19966;DHT22;10144;50.874;4.762;2024-03-02T10:10:40;13.70;1.00
19966;DHT22;10144;50.874;4.762;2024-03-02T10:13:08;13.80;1.00
19966;DHT22;10144;50.874;4.762;2024-03-02T10:15:43;14.50;1.00
19966;DHT22;10144;50.874;4.762;2024-03-02T10:18:12;15.20;56.70
19966;DHT22;10144;50.874;4.762;2024-03-02T10:20:42;15.70;99.90
19966;DHT22;10144;50.874;4.762;2024-03-02T10:23:15;16.20;99.90
19966;DHT22;10144;50.874;4.762;2024-03-02T10:25:45;16.00;1.00
19966;DHT22;10144;50.874;4.762;2024-03-02T10:28:16;15.80;1.00
19966;DHT22;10144;50.874;4.762;2024-03-02T10:30:49;15.60;99.90
19966;DHT22;10144;50.874;4.762;2024-03-02T10:33:18;15.60;99.90
19966;DHT22;10144;50.874;4.762;2024-03-02T10:35:45;15.50;1.00
19966;DHT22;10144;50.874;4.762;2024-03-02T10:38:13;16.00;99.90
19966;DHT22;10144;50.874;4.762;2024-03-02T10:40:47;15.70;1.00
19966;DHT22;10144;50.874;4.762;2024-03-02T10:43:17;16.30;1.00
19966;DHT22;10144;50.874;4.762;2024-03-02T10:45:44;16.70;1.00
19966;DHT22;10144;50.874;4.762;2024-03-02T10:48:14;17.10;1.00
19966;DHT22;10144;50.874;4.762;2024-03-02T10:50:39;16.70;99.90
19966;DHT22;10144;50.874;4.762;2024-03-02T10:53:06;16.10;1.00
19966;DHT22;10144;50.874;4.762;2024-03-02T10:55:34;16.10;99.90
19966;DHT22;10144;50.874;4.762;2024-03-02T10:58:03;16.40;99.90
19966;DHT22;10144;50.874;4.762;2024-03-02T11:00:33;17.00;99.90
19966;DHT22;10144;50.874;4.762;2024-03-02T11:03:07;16.50;1.00
19966;DHT22;10144;50.874;4.762;2024-03-02T11:05:43;15.60;1.00
19966;DHT22;10144;50.874;4.762;2024-03-02T11:08:20;14.60;99.90
19966;DHT22;10144;50.874;4.762;2024-03-02T11:10:51;14.10;1.00
19966;DHT22;10144;50.874;4.762;2024-03-02T11:13:31;13.90;1.00
19966;DHT22;10144;50.874;4.762;2024-03-02T11:16:06;13.90;1.00
19966;DHT22;10144;50.874;4.762;2024-03-02T11:18:42;14.10;1.00
19966;DHT22;10144;50.874;4.762;2024-03-02T11:21:11;14.00;1.00
19966;DHT22;10144;50.874;4.762;2024-03-02T11:23:40;14.40;1.00
19966;DHT22;10144;50.874;4.762;2024-03-02T11:26:23;14.80;99.90
19966;DHT22;10144;50.874;4.762;2024-03-02T11:28:53;15.20;1.00
19966;DHT22;10144;50.874;4.762;2024-03-02T11:31:22;15.20;1.00
19966;DHT22;10144;50.874;4.762;2024-03-02T11:33:51;15.70;99.90
19966;DHT22;10144;50.874;4.762;2024-03-02T11:36:18;15.30;1.00
19966;DHT22;10144;50.874;4.762;2024-03-02T11:38:47;14.90;1.00
19966;DHT22;10144;50.874;4.762;2024-03-02T11:41:13;15.20;1.00
19966;DHT22;10144;50.874;4.762;2024-03-02T11:43:42;16.00;1.00
19966;DHT22;10144;50.874;4.762;2024-03-02T11:46:12;17.00;99.90
19966;DHT22;10144;50.874;4.762;2024-03-02T11:48:46;17.20;1.00
19966;DHT22;10144;50.874;4.762;2024-03-02T11:51:17;17.30;1.00
19966;DHT22;10144;50.874;4.762;2024-03-02T11:53:45;17.30;1.00
19966;DHT22;10144;50.874;4.762;2024-03-02T11:56:15;16.80;1.00
19966;DHT22;10144;50.874;4.762;2024-03-02T11:58:42;16.40;99.90
19966;DHT22;10144;50.874;4.762;2024-03-02T12:01:10;16.10;99.90
19966;DHT22;10144;50.874;4.762;2024-03-02T12:03:43;16.30;1.00
19966;DHT22;10144;50.874;4.762;2024-03-02T12:06:11;16.20;74.00
19966;DHT22;10144;50.874;4.762;2024-03-02T12:08:41;16.60;1.00
19966;DHT22;10144;50.874;4.762;2024-03-02T12:11:13;16.40;1.00
19966;DHT22;10144;50.874;4.762;2024-03-02T12:13:51;16.70;1.00
19966;DHT22;10144;50.874;4.762;2024-03-02T12:16:26;16.00;1.00
19966;DHT22;10144;50.874;4.762;2024-03-02T12:18:55;16.00;99.90
19966;DHT22;10144;50.874;4.762;2024-03-02T12:21:24;16.20;1.00
19966;DHT22;10144;50.874;4.762;2024-03-02T12:23:57;16.40;1.00
19966;DHT22;10144;50.874;4.762;2024-03-02T12:26:26;15.70;1.00
19966;DHT22;10144;50.874;4.762;2024-03-02T12:28:55;15.00;99.90
19966;DHT22;10144;50.874;4.762;2024-03-02T12:31:24;14.30;1.00
19966;DHT22;10144;50.874;4.762;2024-03-02T12:33:54;14.40;1.00
19966;DHT22;10144;50.874;4.762;2024-03-02T12:36:22;14.60;1.00
19966;DHT22;10144;50.874;4.762;2024-03-02T12:38:53;14.40;99.90
19966;DHT22;10144;50.874;4.762;2024-03-02T12:41:22;14.10;1.00
19966;DHT22;10144;50.874;4.762;2024-03-02T12:43:48;13.70;1.00
19966;DHT22;10144;50.874;4.762;2024-03-02T12:46:14;13.70;1.00
19966;DHT22;10144;50.874;4.762;2024-03-02T12:48:41;13.70;1.00
19966;DHT22;10144;50.874;4.762;2024-03-02T12:51:10;14.20;1.00
19966;DHT22;10144;50.874;4.762;2024-03-02T12:53:38;14.30;1.00
19966;DHT22;10144;50.874;4.762;2024-03-02T12:56:10;14.00;1.00
19966;DHT22;10144;50.874;4.762;2024-03-02T12:58:41;13.70;1.00
19966;DHT22;10144;50.874;4.762;2024-03-02T13:01:10;13.60;1.00
19966;DHT22;10144;50.874;4.762;2024-03-02T13:03:42;13.60;1.00
19966;DHT22;10144;50.874;4.762;2024-03-02T13:06:11;13.40;1.00
19966;DHT22;10144;50.874;4.762;2024-03-02T13:08:38;13.30;1.00
19966;DHT22;10144;50.874;4.762;2024-03-02T13:11:10;13.60;1.00
19966;DHT22;10144;50.874;4.762;2024-03-02T13:13:35;13.80;1.00
19966;DHT22;10144;50.874;4.762;2024-03-02T13:16:07;13.80;1.00
19966;DHT22;10144;50.874;4.762;2024-03-02T13:18:38;14.00;1.00
19966;DHT22;10144;50.874;4.762;2024-03-02T13:21:04;14.00;1.00
19966;DHT22;10144;50.874;4.762;2024-03-02T13:23:33;13.90;1.00
19966;DHT22;10144;50.874;4.762;2024-03-02T13:26:01;13.80;1.00
19966;DHT22;10144;50.874;4.762;2024-03-02T13:28:29;13.70;1.00
19966;DHT22;10144;50.874;4.762;2024-03-02T13:31:00;13.70;1.00
19966;DHT22;10144;50.874;4.762;2024-03-02T13:33:27;13.70;1.00
19966;DHT22;10144;50.874;4.762;2024-03-02T13:35:59;13.90;1.00
19966;DHT22;10144;50.874;4.762;2024-03-02T13:38:27;13.90;1.00
19966;DHT22;10144;50.874;4.762;2024-03-02T13:40:52;13.80;1.00
19966;DHT22;10144;50.874;4.762;2024-03-02T13:43:20;13.60;1.00
19966;DHT22;10144;50.874;4.762;2024-03-02T13:45:47;13.50;1.00
19966;DHT22;10144;50.874;4.762;2024-03-02T13:48:16;13.40;1.00
19966;DHT22;10144;50.874;4.762;2024-03-02T13:50:42;13.20;1.00
19966;DHT22;10144;50.874;4.762;2024-03-02T13:53:11;13.00;1.00
19966;DHT22;10144;50.874;4.762;2024-03-02T13:55:42;13.10;1.00
19966;DHT22;10144;50.874;4.762;2024-03-02T13:58:08;13.20;1.00
19966;DHT22;10144;50.874;4.762;2024-03-02T14:00:34;13.30;1.00
19966;DHT22;10144;50.874;4.762;2024-03-02T14:03:03;13.10;1.00
19966;DHT22;10144;50.874;4.762;2024-03-02T14:05:32;13.10;1.00
19966;DHT22;10144;50.874;4.762;2024-03-02T14:08:06;12.90;1.00
19966;DHT22;10144;50.874;4.762;2024-03-02T14:10:44;13.00;1.00
19966;DHT22;10144;50.874;4.762;2024-03-02T14:13:12;13.00;1.00
19966;DHT22;10144;50.874;4.762;2024-03-02T14:15:41;13.10;1.00
19966;DHT22;10144;50.874;4.762;2024-03-02T14:18:07;13.30;1.00
19966;DHT22;10144;50.874;4.762;2024-03-02T14:20:38;13.30;2.00
19966;DHT22;10144;50.874;4.762;2024-03-02T14:23:06;13.30;1.00
19966;DHT22;10144;50.874;4.762;2024-03-02T14:25:35;13.30;1.00
19966;DHT22;10144;50.874;4.762;2024-03-02T14:28:00;13.50;1.00
19966;DHT22;10144;50.874;4.762;2024-03-02T14:30:26;13.60;1.00
19966;DHT22;10144;50.874;4.762;2024-03-02T14:32:58;13.50;1.00
19966;DHT22;10144;50.874;4.762;2024-03-02T14:35:26;13.50;1.00
19966;DHT22;10144;50.874;4.762;2024-03-02T14:37:53;13.30;1.00
19966;DHT22;10144;50.874;4.762;2024-03-02T14:40:19;13.10;1.00
19966;DHT22;10144;50.874;4.762;2024-03-02T14:42:50;13.10;1.00
19966;DHT22;10144;50.874;4.762;2024-03-02T14:45:16;13.10;1.00
19966;DHT22;10144;50.874;4.762;2024-03-02T14:47:43;13.00;1.00
19966;DHT22;10144;50.874;4.762;2024-03-02T14:50:11;13.00;1.00
19966;DHT22;10144;50.874;4.762;2024-03-02T14:52:40;13.00;1.00
19966;DHT22;10144;50.874;4.762;2024-03-02T14:55:07;12.90;1.00
19966;DHT22;10144;50.874;4.762;2024-03-02T14:57:33;13.00;1.00
19966;DHT22;10144;50.874;4.762;2024-03-02T15:00:02;13.00;1.00
19966;DHT22;10144;50.874;4.762;2024-03-02T15:02:29;13.10;1.00
19966;DHT22;10144;50.874;4.762;2024-03-02T15:04:58;13.10;1.00
19966;DHT22;10144;50.874;4.762;2024-03-02T15:07:23;13.00;1.00
19966;DHT22;10144;50.874;4.762;2024-03-02T15:10:05;13.00;1.00
19966;DHT22;10144;50.874;4.762;2024-03-02T15:12:31;12.90;1.00
19966;DHT22;10144;50.874;4.762;2024-03-02T15:15:00;12.90;1.00
19966;DHT22;10144;50.874;4.762;2024-03-02T15:17:26;12.90;1.00
19966;DHT22;10144;50.874;4.762;2024-03-02T15:19:55;12.90;1.00
19966;DHT22;10144;50.874;4.762;2024-03-02T15:22:27;12.80;1.00
19966;DHT22;10144;50.874;4.762;2024-03-02T15:24:54;12.80;1.00
19966;DHT22;10144;50.874;4.762;2024-03-02T15:27:21;12.80;1.00
19966;DHT22;10144;50.874;4.762;2024-03-02T15:29:47;13.00;1.00
19966;DHT22;10144;50.874;4.762;2024-03-02T15:32:15;13.00;1.00
19966;DHT22;10144;50.874;4.762;2024-03-02T15:34:44;12.90;1.00
19966;DHT22;10144;50.874;4.762;2024-03-02T15:37:13;12.90;1.00
19966;DHT22;10144;50.874;4.762;2024-03-02T15:39:39;12.90;1.00
19966;DHT22;10144;50.874;4.762;2024-03-02T15:42:11;12.90;1.00
19966;DHT22;10144;50.874;4.762;2024-03-02T15:44:38;12.90;1.00
19966;DHT22;10144;50.874;4.762;2024-03-02T15:47:05;12.80;1.00
19966;DHT22;10144;50.874;4.762;2024-03-02T15:49:30;12.80;1.00
19966;DHT22;10144;50.874;4.762;2024-03-02T15:52:00;12.80;3.70
19966;DHT22;10144;50.874;4.762;2024-03-02T15:54:27;12.70;14.20
19966;DHT22;10144;50.874;4.762;2024-03-02T15:56:56;12.70;19.40